createdAt,value
2023-02-14T00:00:12.747Z,16.70
2023-02-14T00:01:46.018Z,16.05
2023-02-14T00:03:18.917Z,16.45
2023-02-14T00:04:53.026Z,16.73
2023-02-14T00:06:24.803Z,16.17
2023-02-14T00:07:57.488Z,16.52
2023-02-14T00:09:30.326Z,16.58
2023-02-14T00:11:03.275Z,16.27
2023-02-14T00:12:36.109Z,17.02
2023-02-14T00:14:26.942Z,16.33
2023-02-14T00:15:59.644Z,17.42
2023-02-14T00:17:32.351Z,17.20
2023-02-14T00:19:04.249Z,16.35
2023-02-14T00:20:38.287Z,15.93
2023-02-14T00:22:10.969Z,15.93
2023-02-14T00:23:43.690Z,15.95
2023-02-14T00:25:16.577Z,16.05
2023-02-14T00:26:50.059Z,15.70
2023-02-14T00:28:22.758Z,15.75
2023-02-14T00:29:58.115Z,16.23
2023-02-14T00:31:30.976Z,15.52
2023-02-14T00:33:03.705Z,16.52
2023-02-14T00:34:37.334Z,15.20
2023-02-14T00:36:12.816Z,15.43
2023-02-14T00:37:47.149Z,15.98
2023-02-14T00:39:19.759Z,15.88
2023-02-14T00:40:52.457Z,16.42
2023-02-14T00:42:25.175Z,15.57
2023-02-14T00:43:57.983Z,15.73
2023-02-14T00:45:30.693Z,16.42
2023-02-14T00:47:03.431Z,14.85
2023-02-14T00:48:36.113Z,15.10
2023-02-14T00:50:09.612Z,14.98
2023-02-14T00:51:42.701Z,15.63
2023-02-14T00:53:15.730Z,15.50
2023-02-14T00:54:48.436Z,16.00
2023-02-14T00:56:22.150Z,15.18
2023-02-14T00:57:54.846Z,16.35
2023-02-14T00:59:27.615Z,15.55
2023-02-14T01:01:00.413Z,16.10
2023-02-14T01:02:33.409Z,15.18
2023-02-14T01:04:06.275Z,16.50
2023-02-14T01:05:39.034Z,15.65
2023-02-14T01:07:13.070Z,17.42
2023-02-14T01:08:45.983Z,17.35
2023-02-14T01:10:18.790Z,16.85
2023-02-14T01:11:51.563Z,17.60
2023-02-14T01:13:23.707Z,17.05
2023-02-14T01:14:56.560Z,15.98
2023-02-14T01:16:32.035Z,16.63
2023-02-14T01:18:04.871Z,16.60
2023-02-14T01:19:38.247Z,16.35
2023-02-14T01:21:15.351Z,16.70
2023-02-14T01:22:49.453Z,16.60
2023-02-14T01:24:22.158Z,16.80
2023-02-14T01:25:53.896Z,16.50
2023-02-14T01:27:26.584Z,17.90
2023-02-14T01:28:59.324Z,17.42
2023-02-14T01:30:31.157Z,16.65
2023-02-14T01:32:03.970Z,17.00
2023-02-14T01:33:36.072Z,18.02
2023-02-14T01:35:09.473Z,17.83
2023-02-14T01:36:42.345Z,18.75
2023-02-14T01:38:15.405Z,18.58
2023-02-14T01:39:48.106Z,18.52
2023-02-14T01:41:20.264Z,18.67
2023-02-14T01:42:52.959Z,18.83
2023-02-14T01:44:59.216Z,19.67
2023-02-14T01:46:33.667Z,18.50
2023-02-14T01:48:06.538Z,19.05
2023-02-14T01:49:44.033Z,19.67
2023-02-14T01:51:19.618Z,19.33
2023-02-14T01:52:56.232Z,19.42
2023-02-14T01:54:31.637Z,19.42
2023-02-14T01:56:08.200Z,19.50
2023-02-14T01:57:44.660Z,20.63
2023-02-14T01:59:21.941Z,20.83
2023-02-14T02:01:00.150Z,21.63
2023-02-14T02:02:33.188Z,20.58
2023-02-14T02:04:10.161Z,21.50
2023-02-14T02:05:48.214Z,20.65
2023-02-14T02:07:25.109Z,22.13
2023-02-14T02:09:06.854Z,21.75
2023-02-14T02:10:40.891Z,21.63
2023-02-14T02:12:14.037Z,21.40
2023-02-14T02:13:46.728Z,22.17
2023-02-14T02:15:18.842Z,23.15
2023-02-14T02:17:11.665Z,22.45
2023-02-14T02:18:57.353Z,21.25
2023-02-14T02:20:56.871Z,21.42
2023-02-14T02:22:58.825Z,22.05
2023-02-14T02:24:41.472Z,21.60
2023-02-14T02:26:50.135Z,22.77
2023-02-14T02:29:03.258Z,21.23
2023-02-14T02:31:33.485Z,21.52
2023-02-14T02:33:41.509Z,21.13
2023-02-14T02:35:36.210Z,21.38
2023-02-14T02:37:24.566Z,22.33
2023-02-14T02:39:11.818Z,21.60
2023-02-14T02:40:49.610Z,23.13
2023-02-14T02:42:35.020Z,22.45
2023-02-14T02:44:16.195Z,24.08
2023-02-14T02:46:15.458Z,23.30
2023-02-14T02:47:58.124Z,24.52
2023-02-14T02:50:00.709Z,24.42
2023-02-14T02:51:57.851Z,24.73
2023-02-14T02:53:40.358Z,23.75
2023-02-14T02:55:17.054Z,22.38
2023-02-14T02:56:53.428Z,22.27
2023-02-14T02:58:30.758Z,22.08
2023-02-14T03:00:06.845Z,20.30
2023-02-14T03:01:42.121Z,21.48
2023-02-14T03:03:33.644Z,20.67
2023-02-14T03:05:06.656Z,20.48
2023-02-14T03:06:40.700Z,20.95
2023-02-14T03:08:13.408Z,19.35
2023-02-14T03:09:53.668Z,20.27
2023-02-14T03:11:27.348Z,18.65
2023-02-14T03:13:31.443Z,19.13
2023-02-14T03:15:12.154Z,18.00
2023-02-14T03:16:57.282Z,18.70
2023-02-14T03:18:51.403Z,19.40
2023-02-14T03:20:30.954Z,18.85
2023-02-14T03:22:09.334Z,19.70
2023-02-14T03:23:50.376Z,20.13
2023-02-14T03:25:41.596Z,22.27
2023-02-14T03:27:19.454Z,23.45
2023-02-14T03:28:58.675Z,21.15
2023-02-14T03:30:40.258Z,20.08
2023-02-14T03:32:20.252Z,19.83
2023-02-14T03:34:00.451Z,19.48
2023-02-14T03:35:38.033Z,18.63
2023-02-14T03:37:16.187Z,18.92
2023-02-14T03:38:52.492Z,18.95
2023-02-14T03:40:28.765Z,18.50
2023-02-14T03:42:06.390Z,21.50
2023-02-14T03:43:45.098Z,20.65
2023-02-14T03:45:22.116Z,20.40
2023-02-14T03:46:59.540Z,19.90
2023-02-14T03:48:34.537Z,20.73
2023-02-14T03:50:10.963Z,19.98
2023-02-14T03:51:47.612Z,20.13
2023-02-14T03:53:26.414Z,21.50
2023-02-14T03:55:01.468Z,19.77
2023-02-14T03:56:39.691Z,20.73
2023-02-14T03:58:17.414Z,20.38
2023-02-14T03:59:49.857Z,19.13
2023-02-14T04:01:26.747Z,22.38
2023-02-14T04:03:04.814Z,21.02
2023-02-14T04:04:41.470Z,21.48
2023-02-14T04:06:14.479Z,20.90
2023-02-14T04:07:48.960Z,20.70
2023-02-14T04:09:23.005Z,20.88
2023-02-14T04:10:59.315Z,20.60
2023-02-14T04:12:37.690Z,20.83
2023-02-14T04:14:10.945Z,19.55
2023-02-14T04:15:43.710Z,21.17
2023-02-14T04:17:34.128Z,20.35
2023-02-14T04:19:24.055Z,20.80
2023-02-14T04:20:56.854Z,22.55
2023-02-14T04:22:29.575Z,25.55
2023-02-14T04:24:02.252Z,25.20
2023-02-14T04:25:36.277Z,26.88
2023-02-14T04:27:11.754Z,23.60
2023-02-14T04:28:44.455Z,28.95
2023-02-14T04:30:20.685Z,22.70
2023-02-14T04:31:53.523Z,23.17
2023-02-14T04:33:26.322Z,21.63
2023-02-14T04:34:59.006Z,21.67
2023-02-14T04:36:30.752Z,25.20
2023-02-14T04:38:04.196Z,20.95
2023-02-14T04:39:37.635Z,20.73
2023-02-14T04:41:11.655Z,20.90
2023-02-14T04:42:44.410Z,21.90
2023-02-14T04:44:17.121Z,21.15
2023-02-14T04:45:49.814Z,20.90
2023-02-14T04:47:21.577Z,24.50
2023-02-14T04:48:54.243Z,41.25
2023-02-14T04:50:26.972Z,40.22
2023-02-14T04:51:59.967Z,34.50
2023-02-14T04:53:32.634Z,22.35
2023-02-14T04:55:06.447Z,18.88
2023-02-14T04:56:39.617Z,16.33
2023-02-14T04:58:12.312Z,17.25
2023-02-14T04:59:45.061Z,16.38
2023-02-14T05:01:16.861Z,17.33
2023-02-14T05:02:49.598Z,19.65
2023-02-14T05:04:22.536Z,16.05
2023-02-14T05:05:55.230Z,17.85
2023-02-14T05:07:27.924Z,18.13
2023-02-14T05:09:00.753Z,19.80
2023-02-14T05:10:33.495Z,19.42
2023-02-14T05:12:07.946Z,19.15
2023-02-14T05:13:40.671Z,19.58
2023-02-14T05:15:13.403Z,20.08
2023-02-14T05:16:46.117Z,19.83
2023-02-14T05:18:18.875Z,20.63
2023-02-14T05:19:51.613Z,19.30
2023-02-14T05:21:24.330Z,18.20
2023-02-14T05:22:57.002Z,19.63
2023-02-14T05:24:29.702Z,20.00
2023-02-14T05:26:02.418Z,20.17
2023-02-14T05:27:36.468Z,21.83
2023-02-14T05:29:09.365Z,20.42
2023-02-14T05:30:42.227Z,21.05
2023-02-14T05:32:15.110Z,22.60
2023-02-14T05:33:47.867Z,21.40
2023-02-14T05:35:20.571Z,23.13
2023-02-14T05:36:54.821Z,23.02
2023-02-14T05:38:27.860Z,24.23
2023-02-14T05:40:00.593Z,23.98
2023-02-14T05:41:33.463Z,23.65
2023-02-14T05:43:07.865Z,22.75
2023-02-14T05:44:40.610Z,26.48
2023-02-14T05:46:13.447Z,22.73
2023-02-14T05:47:46.180Z,24.85
2023-02-14T05:49:18.878Z,23.75
2023-02-14T05:50:51.575Z,23.17
2023-02-14T05:52:24.510Z,24.30
2023-02-14T05:53:59.845Z,24.73
2023-02-14T05:55:32.611Z,24.20
2023-02-14T05:57:05.348Z,26.17
2023-02-14T05:58:39.508Z,27.73
2023-02-14T06:00:13.521Z,25.17
2023-02-14T06:01:46.248Z,25.80
2023-02-14T06:03:18.981Z,26.17
2023-02-14T06:04:51.796Z,27.52
2023-02-14T06:06:24.499Z,26.85
2023-02-14T06:07:57.204Z,27.00
2023-02-14T06:09:30.081Z,29.63
2023-02-14T06:11:02.907Z,26.95
2023-02-14T06:12:35.634Z,25.27
2023-02-14T06:14:09.678Z,26.20
2023-02-14T06:15:42.498Z,24.88
2023-02-14T06:17:15.231Z,30.42
2023-02-14T06:18:47.951Z,26.30
2023-02-14T06:20:21.213Z,25.70
2023-02-14T06:21:53.935Z,26.00
2023-02-14T06:23:26.629Z,23.35
2023-02-14T06:24:59.456Z,25.70
2023-02-14T06:26:33.197Z,27.60
2023-02-14T06:28:06.554Z,24.20
2023-02-14T06:29:40.660Z,22.85
2023-02-14T06:31:17.212Z,25.55
2023-02-14T06:32:49.938Z,26.73
2023-02-14T06:34:22.613Z,26.27
2023-02-14T06:35:55.673Z,26.30
2023-02-14T06:37:28.361Z,27.88
2023-02-14T06:39:01.180Z,25.98
2023-02-14T06:40:34.835Z,27.05
2023-02-14T06:42:07.854Z,29.67
2023-02-14T06:43:40.615Z,28.60
2023-02-14T06:45:14.752Z,27.67
2023-02-14T06:46:47.427Z,28.48
2023-02-14T06:48:20.115Z,31.30
2023-02-14T06:49:52.820Z,29.70
2023-02-14T06:51:25.516Z,29.08
2023-02-14T06:52:58.217Z,30.27
2023-02-14T06:54:30.973Z,29.33
2023-02-14T06:56:03.924Z,28.70
2023-02-14T06:57:36.661Z,30.52
2023-02-14T06:59:09.354Z,27.40
2023-02-14T07:00:43.506Z,25.50
2023-02-14T07:02:16.373Z,28.05
2023-02-14T07:03:49.098Z,28.40
2023-02-14T07:05:21.882Z,26.17
2023-02-14T07:06:54.608Z,29.83
2023-02-14T07:08:27.494Z,26.50
2023-02-14T07:10:00.180Z,29.10
2023-02-14T07:11:32.995Z,26.10
2023-02-14T07:13:05.780Z,27.42
2023-02-14T07:14:38.463Z,24.80
2023-02-14T07:16:12.546Z,27.92
2023-02-14T07:17:45.605Z,29.05
2023-02-14T07:19:18.316Z,25.65
2023-02-14T07:20:51.048Z,28.15
2023-02-14T07:22:23.727Z,29.10
2023-02-14T07:23:56.441Z,28.13
2023-02-14T07:25:29.136Z,27.52
2023-02-14T07:27:01.828Z,28.20
2023-02-14T07:28:34.551Z,27.08
2023-02-14T07:30:09.222Z,28.30
2023-02-14T07:31:43.490Z,26.95
2023-02-14T07:33:16.387Z,25.42
2023-02-14T07:34:49.087Z,25.67
2023-02-14T07:36:21.792Z,26.08
2023-02-14T07:37:54.559Z,25.58
2023-02-14T07:39:27.300Z,27.52
2023-02-14T07:41:00.314Z,26.75
2023-02-14T07:42:33.217Z,26.80
2023-02-14T07:44:06.109Z,27.85
2023-02-14T07:45:38.814Z,29.48
2023-02-14T07:47:12.948Z,30.15
2023-02-14T07:48:45.828Z,29.25
2023-02-14T07:50:18.974Z,27.88
2023-02-14T07:51:51.716Z,28.20
2023-02-14T07:53:24.681Z,28.77
2023-02-14T07:54:57.413Z,28.55
2023-02-14T07:56:30.119Z,27.40
2023-02-14T07:58:03.391Z,29.13
2023-02-14T07:59:36.371Z,28.05
2023-02-14T08:01:09.110Z,27.95
2023-02-14T08:02:43.173Z,28.23
2023-02-14T08:04:15.896Z,27.13
2023-02-14T08:05:56.864Z,27.50
2023-02-14T08:07:29.646Z,27.58
2023-02-14T08:09:02.731Z,27.05
2023-02-14T08:10:35.486Z,26.00
2023-02-14T08:12:25.702Z,25.67
2023-02-14T08:13:58.384Z,26.52
2023-02-14T08:15:51.021Z,27.42
2023-02-14T08:17:23.748Z,25.88
2023-02-14T08:18:58.038Z,26.33
2023-02-14T08:20:30.846Z,24.85
2023-02-14T08:22:03.707Z,25.08
2023-02-14T08:23:36.890Z,26.83
2023-02-14T08:25:09.753Z,23.58
2023-02-14T08:26:42.484Z,25.70
2023-02-14T08:28:15.189Z,25.75
2023-02-14T08:29:47.907Z,25.65
2023-02-14T08:31:34.496Z,26.15
2023-02-14T08:33:08.493Z,25.83
2023-02-14T08:34:42.571Z,25.40
2023-02-14T08:36:17.667Z,25.40
2023-02-14T08:37:50.620Z,24.35
2023-02-14T08:39:23.801Z,25.10
2023-02-14T08:41:01.151Z,27.52
2023-02-14T08:42:34.012Z,27.33
2023-02-14T08:44:06.963Z,24.23
2023-02-14T08:45:40.240Z,27.38
2023-02-14T08:47:13.026Z,25.38
2023-02-14T08:48:45.986Z,26.08
2023-02-14T08:50:20.501Z,26.58
2023-02-14T08:51:54.506Z,25.20
2023-02-14T08:53:27.184Z,25.55
2023-02-14T08:55:00.032Z,26.60
2023-02-14T08:56:33.118Z,26.33
2023-02-14T08:58:06.863Z,26.50
2023-02-14T08:59:39.551Z,25.45
2023-02-14T09:01:14.269Z,25.35
2023-02-14T09:02:46.955Z,24.17
2023-02-14T09:04:19.950Z,30.00
2023-02-14T09:05:54.025Z,26.75
2023-02-14T09:07:27.059Z,24.65
2023-02-14T09:09:01.583Z,25.02
2023-02-14T09:10:35.214Z,25.13
2023-02-14T09:12:09.649Z,23.02
2023-02-14T09:13:43.789Z,23.80
2023-02-14T09:15:16.493Z,25.13
2023-02-14T09:16:49.315Z,24.83
2023-02-14T09:18:22.082Z,24.50
2023-02-14T09:19:54.826Z,24.85
2023-02-14T09:21:29.622Z,24.08
2023-02-14T09:23:02.582Z,25.40
2023-02-14T09:24:36.738Z,26.10
2023-02-14T09:26:11.405Z,26.35
2023-02-14T09:27:44.555Z,28.80
2023-02-14T09:29:17.886Z,30.75
2023-02-14T09:30:52.292Z,29.95
2023-02-14T09:32:27.197Z,26.58
2023-02-14T09:34:00.005Z,24.63
2023-02-14T09:35:32.316Z,26.38
2023-02-14T09:37:24.039Z,26.38
2023-02-14T09:38:56.759Z,26.75
2023-02-14T09:40:29.543Z,26.60
2023-02-14T09:42:26.423Z,30.17
2023-02-14T09:44:01.596Z,25.25
2023-02-14T09:45:34.987Z,25.52
2023-02-14T09:47:13.569Z,25.58
2023-02-14T09:48:49.288Z,25.13
2023-02-14T09:50:26.447Z,27.73
2023-02-14T09:52:00.583Z,28.90
2023-02-14T09:53:38.667Z,27.38
2023-02-14T09:55:16.213Z,28.48
2023-02-14T09:56:57.569Z,25.55
2023-02-14T09:58:34.513Z,26.30
2023-02-14T10:00:19.032Z,25.02
2023-02-14T10:01:57.631Z,25.75
2023-02-14T10:03:46.562Z,26.05
2023-02-14T10:05:23.549Z,28.02
2023-02-14T10:07:02.164Z,29.55
2023-02-14T10:08:48.261Z,27.88
2023-02-14T10:10:26.939Z,28.10
2023-02-14T10:12:01.619Z,28.67
2023-02-14T10:13:40.932Z,26.92
2023-02-14T10:15:18.831Z,28.15
2023-02-14T10:16:56.227Z,26.52
2023-02-14T10:18:36.517Z,25.10
2023-02-14T10:20:21.586Z,24.15
2023-02-14T10:21:57.584Z,23.23
2023-02-14T10:23:34.302Z,24.67
2023-02-14T10:25:17.194Z,25.15
2023-02-14T10:26:51.488Z,23.67
2023-02-14T10:28:32.331Z,23.92
2023-02-14T10:30:14.973Z,24.50
2023-02-14T10:31:55.867Z,24.88
2023-02-14T10:33:33.163Z,24.73
2023-02-14T10:35:12.756Z,24.92
2023-02-14T10:36:57.064Z,24.73
2023-02-14T10:38:38.945Z,24.00
2023-02-14T10:40:32.322Z,23.30
2023-02-14T10:42:14.682Z,24.83
2023-02-14T10:44:00.579Z,24.30
2023-02-14T10:45:39.987Z,24.88
2023-02-14T10:47:26.638Z,23.63
2023-02-14T10:49:12.006Z,24.27
2023-02-14T10:50:52.162Z,24.60
2023-02-14T10:52:29.772Z,22.52
2023-02-14T10:54:16.882Z,22.83
2023-02-14T10:55:55.251Z,23.63
2023-02-14T10:57:32.603Z,22.92
2023-02-14T10:59:19.284Z,23.45
2023-02-14T11:00:59.771Z,23.95
2023-02-14T11:02:36.351Z,23.55
2023-02-14T11:04:12.618Z,23.00
2023-02-14T11:05:48.248Z,22.60
2023-02-14T11:07:22.871Z,22.90
2023-02-14T11:08:57.278Z,22.73
2023-02-14T11:10:33.757Z,22.35
2023-02-14T11:12:08.857Z,23.40
2023-02-14T11:13:42.101Z,22.55
2023-02-14T11:15:27.507Z,23.20
2023-02-14T11:17:01.518Z,21.75
2023-02-14T11:18:35.933Z,23.67
2023-02-14T11:20:25.011Z,22.70
2023-02-14T11:21:59.797Z,23.40
2023-02-14T11:23:37.713Z,23.80
2023-02-14T11:25:20.574Z,23.00
2023-02-14T11:26:55.556Z,23.48
2023-02-14T11:28:29.736Z,22.08
2023-02-14T11:30:02.522Z,21.70
2023-02-14T11:31:37.889Z,20.85
2023-02-14T11:33:13.736Z,21.98
2023-02-14T11:34:48.636Z,22.48
2023-02-14T11:36:21.983Z,21.75
2023-02-14T11:37:56.264Z,21.40
2023-02-14T11:39:31.956Z,22.60
2023-02-14T11:41:07.113Z,24.80
2023-02-14T11:42:43.529Z,23.85
2023-02-14T11:44:22.581Z,22.20
2023-02-14T11:46:07.818Z,22.92
2023-02-14T11:47:42.783Z,23.35
2023-02-14T11:49:29.551Z,24.25
2023-02-14T11:51:06.067Z,23.63
2023-02-14T11:52:49.072Z,23.95
2023-02-14T11:54:30.604Z,23.23
2023-02-14T11:56:03.478Z,24.05
2023-02-14T11:57:39.708Z,23.20
2023-02-14T11:59:15.590Z,25.63
2023-02-14T12:00:54.829Z,25.83
2023-02-14T12:02:32.455Z,23.92
2023-02-14T12:04:08.959Z,25.42
2023-02-14T12:05:48.563Z,26.98
2023-02-14T12:07:25.717Z,25.20
2023-02-14T12:09:12.614Z,24.70
2023-02-14T12:10:45.349Z,23.95
2023-02-14T12:12:27.504Z,25.77
2023-02-14T12:14:00.311Z,24.63
2023-02-14T12:15:36.725Z,28.60
2023-02-14T12:17:25.709Z,24.60
2023-02-14T12:19:03.535Z,27.33
2023-02-14T12:20:41.815Z,36.20
2023-02-14T12:22:19.792Z,29.45
2023-02-14T12:24:01.273Z,28.50
2023-02-14T12:25:43.270Z,25.38
2023-02-14T12:27:21.233Z,25.75
2023-02-14T12:29:01.385Z,26.33
2023-02-14T12:30:35.764Z,26.27
2023-02-14T12:32:20.775Z,25.35
2023-02-14T12:33:53.787Z,24.80
2023-02-14T12:35:42.354Z,25.67
2023-02-14T12:37:23.311Z,24.45
2023-02-14T12:39:08.406Z,32.70
2023-02-14T12:40:52.897Z,26.45
2023-02-14T12:42:40.624Z,25.98
2023-02-14T12:44:22.925Z,24.27
2023-02-14T12:46:12.494Z,24.45
2023-02-14T12:47:56.963Z,26.13
2023-02-14T12:49:52.476Z,24.23
2023-02-14T12:51:31.046Z,25.90
2023-02-14T12:53:21.805Z,25.13
2023-02-14T12:55:08.971Z,23.98
2023-02-14T12:56:51.442Z,24.15
2023-02-14T12:58:38.016Z,24.85
2023-02-14T13:00:24.100Z,24.10
2023-02-14T13:02:36.655Z,23.13
2023-02-14T13:04:45.286Z,23.83
2023-02-14T13:06:28.779Z,23.10
2023-02-14T13:08:17.487Z,22.05
2023-02-14T13:09:59.320Z,22.20
2023-02-14T13:11:40.561Z,21.92
2023-02-14T13:13:19.599Z,22.45
2023-02-14T13:15:00.201Z,22.85
2023-02-14T13:16:40.310Z,21.42
2023-02-14T13:18:19.201Z,21.10
2023-02-14T13:20:01.730Z,22.65
2023-02-14T13:21:38.700Z,22.10
2023-02-14T13:23:15.099Z,22.27
2023-02-14T13:24:51.683Z,22.05
2023-02-14T13:26:30.297Z,22.20
2023-02-14T13:28:05.490Z,22.77
2023-02-14T13:29:44.954Z,21.52
2023-02-14T13:31:19.176Z,23.35
2023-02-14T13:32:54.277Z,23.65
2023-02-14T13:34:29.792Z,23.40
2023-02-14T13:36:07.668Z,23.70
2023-02-14T13:37:47.580Z,22.65
2023-02-14T13:39:28.624Z,22.00
2023-02-14T13:41:02.834Z,23.38
2023-02-14T13:42:53.402Z,22.35
2023-02-14T13:44:47.503Z,23.23
2023-02-14T13:46:23.128Z,22.50
2023-02-14T13:48:05.383Z,23.33
2023-02-14T13:49:41.333Z,22.90
2023-02-14T13:51:14.053Z,22.30
2023-02-14T13:52:49.588Z,23.45
2023-02-14T13:54:34.240Z,22.98
2023-02-14T13:56:32.422Z,22.42
2023-02-14T13:58:08.172Z,23.13
2023-02-14T13:59:40.891Z,23.38
2023-02-14T14:01:31.585Z,24.45
2023-02-14T14:03:05.390Z,22.85
2023-02-14T14:04:39.119Z,24.33
2023-02-14T14:06:12.508Z,23.58
2023-02-14T14:07:45.223Z,24.33
2023-02-14T14:09:53.736Z,24.88
2023-02-14T14:11:50.820Z,23.20
2023-02-14T14:13:57.577Z,22.70
2023-02-14T14:15:30.323Z,23.17
2023-02-14T14:17:05.789Z,23.30
2023-02-14T14:18:43.598Z,23.30
2023-02-14T14:20:44.731Z,23.77
2023-02-14T14:22:17.929Z,22.42
2023-02-14T14:24:06.817Z,22.48
2023-02-14T14:25:43.534Z,23.90
2023-02-14T14:27:18.711Z,23.20
2023-02-14T14:28:51.429Z,25.17
2023-02-14T14:30:29.174Z,25.05
2023-02-14T14:32:10.281Z,24.92
2023-02-14T14:33:43.055Z,25.27
2023-02-14T14:35:20.564Z,23.98
2023-02-14T14:37:03.831Z,24.83
2023-02-14T14:38:47.481Z,24.95
2023-02-14T14:40:26.366Z,25.05
2023-02-14T14:42:08.647Z,25.13
2023-02-14T14:43:42.430Z,23.70
2023-02-14T14:45:22.552Z,23.02
2023-02-14T14:47:00.413Z,22.30
2023-02-14T14:48:37.932Z,24.27
2023-02-14T14:50:16.383Z,24.48
2023-02-14T14:51:49.641Z,24.13
2023-02-14T14:53:26.001Z,23.30
2023-02-14T14:55:00.198Z,24.85
2023-02-14T14:56:35.167Z,25.60
2023-02-14T14:58:37.274Z,25.45
2023-02-14T15:00:27.111Z,24.30
2023-02-14T15:01:59.870Z,24.50
2023-02-14T15:03:33.176Z,25.58
2023-02-14T15:05:18.238Z,25.90
2023-02-14T15:06:51.682Z,25.27
2023-02-14T15:08:33.666Z,24.90
2023-02-14T15:10:22.522Z,25.27
2023-02-14T15:12:12.796Z,24.98
2023-02-14T15:13:53.762Z,26.13
2023-02-14T15:15:26.687Z,25.45
2023-02-14T15:17:01.679Z,25.90
2023-02-14T15:18:34.569Z,26.63
2023-02-14T15:20:11.238Z,25.80
2023-02-14T15:21:44.873Z,26.42
2023-02-14T15:23:19.975Z,26.60
2023-02-14T15:24:53.372Z,26.38
2023-02-14T15:26:30.119Z,25.30
2023-02-14T15:28:03.648Z,24.17
2023-02-14T15:29:37.680Z,21.92
2023-02-14T15:31:11.209Z,22.77
2023-02-14T15:32:44.126Z,25.90
2023-02-14T15:34:17.115Z,26.17
2023-02-14T15:35:50.145Z,23.55
2023-02-14T15:37:25.201Z,24.85
2023-02-14T15:38:59.883Z,24.35
2023-02-14T15:40:34.923Z,28.08
2023-02-14T15:42:22.510Z,27.77
2023-02-14T15:43:57.517Z,26.75
2023-02-14T15:45:32.441Z,27.40
2023-02-14T15:47:06.459Z,25.50
2023-02-14T15:48:41.820Z,26.52
2023-02-14T15:50:17.677Z,26.52
2023-02-14T15:51:51.918Z,26.00
2023-02-14T15:53:37.392Z,25.80
2023-02-14T15:55:11.758Z,24.77
2023-02-14T15:56:48.836Z,26.05
2023-02-14T15:58:24.662Z,25.25
2023-02-14T15:59:57.366Z,25.27
2023-02-14T16:01:33.590Z,25.27
2023-02-14T16:03:09.037Z,27.48
2023-02-14T16:04:41.761Z,25.33
2023-02-14T16:06:31.899Z,24.73
2023-02-14T16:08:06.732Z,25.30
2023-02-14T16:09:39.441Z,30.95
2023-02-14T16:11:15.736Z,25.38
2023-02-14T16:12:57.526Z,23.55
2023-02-14T16:14:32.666Z,31.65
2023-02-14T16:16:07.484Z,124.07
2023-02-14T16:17:43.850Z,39.00
2023-02-14T16:19:32.743Z,61.35
2023-02-14T16:21:17.716Z,24.27
2023-02-14T16:22:50.479Z,23.35
2023-02-14T16:24:23.180Z,24.00
2023-02-14T16:25:57.380Z,42.45
2023-02-14T16:27:31.523Z,29.77
2023-02-14T16:29:04.809Z,23.45
2023-02-14T16:30:38.854Z,23.98
2023-02-14T16:32:17.046Z,23.90
2023-02-14T16:33:51.610Z,24.27
2023-02-14T16:35:24.583Z,26.77
2023-02-14T16:36:57.318Z,31.27
2023-02-14T16:38:30.056Z,28.15
2023-02-14T16:40:03.081Z,24.45
2023-02-14T16:41:36.089Z,24.17
2023-02-14T16:43:13.646Z,26.73
2023-02-14T16:44:47.113Z,26.08
2023-02-14T16:46:21.929Z,37.63
2023-02-14T16:47:54.656Z,42.95
2023-02-14T16:49:28.730Z,82.75
2023-02-14T16:51:01.721Z,76.32
2023-02-14T16:52:34.768Z,120.68
2023-02-14T16:54:09.541Z,68.68
2023-02-14T16:55:42.709Z,46.38
2023-02-14T16:57:25.854Z,33.33
2023-02-14T16:59:00.056Z,28.23
2023-02-14T17:00:32.778Z,26.85
2023-02-14T17:02:05.496Z,25.55
2023-02-14T17:03:39.869Z,25.02
2023-02-14T17:05:14.010Z,24.88
2023-02-14T17:06:50.178Z,34.95
2023-02-14T17:08:22.880Z,32.53
2023-02-14T17:09:59.492Z,26.40
2023-02-14T17:11:33.570Z,24.95
2023-02-14T17:13:07.272Z,40.05
2023-02-14T17:14:42.847Z,31.08
2023-02-14T17:16:16.825Z,25.67
2023-02-14T17:17:51.640Z,27.00
2023-02-14T17:19:24.354Z,27.45
2023-02-14T17:21:00.363Z,26.08
2023-02-14T17:22:34.381Z,25.63
2023-02-14T17:24:07.513Z,25.33
2023-02-14T17:25:40.532Z,24.90
2023-02-14T17:27:13.264Z,24.95
2023-02-14T17:28:47.227Z,26.65
2023-02-14T17:30:20.213Z,26.05
2023-02-14T17:31:53.451Z,25.30
2023-02-14T17:33:26.562Z,26.15
2023-02-14T17:35:00.914Z,25.13
2023-02-14T17:36:34.983Z,26.00
2023-02-14T17:38:07.670Z,24.25
2023-02-14T17:39:40.411Z,24.30
2023-02-14T17:41:14.786Z,23.55
2023-02-14T17:42:47.511Z,24.55
2023-02-14T17:44:20.843Z,24.42
2023-02-14T17:45:53.579Z,24.83
2023-02-14T17:47:26.305Z,23.65
2023-02-14T17:49:02.388Z,24.13
2023-02-14T17:50:35.739Z,23.40
2023-02-14T17:52:09.791Z,23.75
2023-02-14T17:53:43.373Z,24.20
2023-02-14T17:55:16.720Z,24.75
2023-02-14T17:56:49.418Z,25.10
2023-02-14T17:58:22.194Z,25.38
2023-02-14T17:59:54.894Z,24.63
2023-02-14T18:01:31.286Z,24.83
2023-02-14T18:03:04.205Z,24.30
2023-02-14T18:04:37.274Z,24.25
2023-02-14T18:06:11.379Z,24.30
2023-02-14T18:07:45.516Z,24.83
2023-02-14T18:09:19.223Z,24.23
2023-02-14T18:10:51.906Z,24.05
2023-02-14T18:12:25.237Z,23.33
2023-02-14T18:13:59.494Z,23.63
2023-02-14T18:15:32.190Z,23.10
2023-02-14T18:17:05.794Z,24.13
2023-02-14T18:18:39.450Z,22.15
2023-02-14T18:20:12.673Z,23.60
2023-02-14T18:21:46.262Z,24.52
2023-02-14T18:23:20.282Z,23.58
2023-02-14T18:24:52.964Z,24.83
2023-02-14T18:26:26.769Z,25.17
2023-02-14T18:28:00.032Z,25.23
2023-02-14T18:29:32.900Z,24.25
2023-02-14T18:31:06.595Z,25.38
2023-02-14T18:32:39.343Z,25.30
2023-02-14T18:34:12.200Z,25.45
2023-02-14T18:35:44.998Z,25.33
2023-02-14T18:37:18.133Z,29.73
2023-02-14T18:38:52.259Z,31.60
2023-02-14T18:40:24.991Z,28.88
2023-02-14T18:41:59.816Z,25.70
2023-02-14T18:43:32.632Z,27.20
2023-02-14T18:45:05.826Z,27.55
2023-02-14T18:46:38.511Z,26.60
2023-02-14T18:48:11.203Z,27.80
2023-02-14T18:49:43.882Z,26.13
2023-02-14T18:51:18.642Z,27.13
2023-02-14T18:52:51.322Z,27.33
2023-02-14T18:54:25.603Z,28.05
2023-02-14T18:55:58.299Z,28.33
2023-02-14T18:57:31.376Z,32.13
2023-02-14T18:59:06.791Z,28.13
2023-02-14T19:00:39.828Z,27.58
2023-02-14T19:02:13.879Z,25.65
2023-02-14T19:03:46.726Z,26.13
2023-02-14T19:05:19.561Z,25.42
2023-02-14T19:06:52.267Z,25.90
2023-02-14T19:08:24.966Z,27.02
2023-02-14T19:09:59.053Z,26.98
2023-02-14T19:11:33.744Z,28.02
2023-02-14T19:13:07.147Z,48.80
2023-02-14T19:14:39.839Z,61.63
2023-02-14T19:16:13.104Z,31.83
2023-02-14T19:17:45.826Z,29.98
2023-02-14T19:19:18.906Z,28.05
2023-02-14T19:20:51.987Z,28.02
2023-02-14T19:22:24.733Z,27.42
2023-02-14T19:23:58.518Z,27.63
2023-02-14T19:25:34.436Z,27.92
2023-02-14T19:27:07.151Z,28.42
2023-02-14T19:28:40.132Z,29.73
2023-02-14T19:30:13.322Z,29.95
2023-02-14T19:31:48.210Z,28.38
2023-02-14T19:33:21.134Z,30.17
2023-02-14T19:34:53.900Z,28.58
2023-02-14T19:36:26.566Z,30.08
2023-02-14T19:38:03.295Z,28.67
2023-02-14T19:39:35.997Z,30.45
2023-02-14T19:41:16.556Z,29.58
2023-02-14T19:42:49.259Z,29.05
2023-02-14T19:44:25.090Z,29.63
2023-02-14T19:45:58.052Z,28.20
2023-02-14T19:47:45.912Z,27.88
2023-02-14T19:49:21.058Z,27.70
2023-02-14T19:50:54.958Z,28.35
2023-02-14T19:52:28.024Z,28.15
2023-02-14T19:54:03.020Z,29.73
2023-02-14T19:55:35.746Z,29.90
2023-02-14T19:57:13.293Z,29.00
2023-02-14T19:58:46.013Z,29.30
2023-02-14T20:00:20.852Z,29.35
2023-02-14T20:01:54.544Z,28.88
2023-02-14T20:03:27.321Z,28.67
2023-02-14T20:05:04.137Z,28.08
2023-02-14T20:06:37.869Z,30.27
2023-02-14T20:08:10.568Z,29.88
2023-02-14T20:09:43.258Z,28.88
2023-02-14T20:11:32.581Z,28.45
2023-02-14T20:13:06.629Z,27.83
2023-02-14T20:14:50.868Z,26.23
2023-02-14T20:16:25.139Z,28.50
2023-02-14T20:17:57.999Z,27.83
2023-02-14T20:19:34.508Z,28.13
2023-02-14T20:21:07.468Z,27.85
2023-02-14T20:22:40.411Z,26.88
2023-02-14T20:24:16.314Z,42.90
2023-02-14T20:25:49.262Z,60.17
2023-02-14T20:27:24.549Z,50.05
2023-02-14T20:28:59.486Z,44.40
2023-02-14T20:30:32.215Z,48.17
2023-02-14T20:32:05.868Z,48.47
2023-02-14T20:33:38.906Z,48.85
2023-02-14T20:35:11.609Z,36.80
2023-02-14T20:36:45.059Z,32.50
2023-02-14T20:38:17.766Z,28.58
2023-02-14T20:39:50.526Z,28.55
2023-02-14T20:41:23.973Z,30.20
2023-02-14T20:42:56.863Z,30.70